createdAt,value
2018-11-23T00:02:50.420Z,97.22
2018-11-23T00:12:51.069Z,97.61
2018-11-23T00:22:50.509Z,97.49
2018-11-23T00:32:50.415Z,97.76
2018-11-23T00:42:50.483Z,97.87
2018-11-23T00:52:50.421Z,98.49
2018-11-23T01:02:50.334Z,98.11
2018-11-23T01:12:50.492Z,98.33
2018-11-23T01:22:50.492Z,98.70
2018-11-23T01:32:50.423Z,98.32
2018-11-23T01:42:50.391Z,98.22
2018-11-23T01:52:50.569Z,98.59
2018-11-23T02:02:50.453Z,98.43
2018-11-23T02:12:50.488Z,98.55
2018-11-23T02:22:50.477Z,98.70
2018-11-23T02:32:50.443Z,98.58
2018-11-23T02:42:50.415Z,99.14
2018-11-23T02:52:50.361Z,98.90
2018-11-23T03:02:50.430Z,99.01
2018-11-23T03:12:50.430Z,99.03
2018-11-23T03:22:50.374Z,98.99
2018-11-23T03:32:50.447Z,98.98
2018-11-23T03:42:50.433Z,98.52
2018-11-23T03:52:50.414Z,98.98
2018-11-23T04:02:50.419Z,98.85
2018-11-23T04:12:50.458Z,99.03
2018-11-23T04:22:50.434Z,99.16
2018-11-23T04:32:50.368Z,99.07
2018-11-23T04:42:50.410Z,99.35
2018-11-23T04:52:57.642Z,99.35
2018-11-23T05:02:50.423Z,98.93
2018-11-23T05:12:50.474Z,99.23
2018-11-23T05:22:50.395Z,99.14
2018-11-23T05:32:50.380Z,98.94
2018-11-23T05:42:50.407Z,99.15
2018-11-23T05:52:50.325Z,99.25
2018-11-23T06:02:50.389Z,99.31
2018-11-23T06:12:50.287Z,98.77
2018-11-23T06:22:50.351Z,98.80
2018-11-23T06:32:50.424Z,99.04
2018-11-23T06:42:50.384Z,98.72
2018-11-23T06:52:50.430Z,99.50
2018-11-23T07:02:50.331Z,99.07
2018-11-23T07:12:50.343Z,99.17
2018-11-23T07:22:50.352Z,99.20
2018-11-23T07:32:50.368Z,99.27
2018-11-23T07:42:50.419Z,99.55
2018-11-23T07:52:50.399Z,99.34
2018-11-23T08:02:50.458Z,99.29
2018-11-23T08:12:51.028Z,97.84
2018-11-23T08:22:50.337Z,92.42
2018-11-23T08:32:50.964Z,85.86
2018-11-23T08:42:50.337Z,85.21
2018-11-23T08:52:50.339Z,75.63
2018-11-23T09:02:50.384Z,78.46
2018-11-23T09:12:50.379Z,80.98
2018-11-23T09:22:50.365Z,78.19
2018-11-23T09:32:50.429Z,73.96
2018-11-23T09:42:50.396Z,74.04
2018-11-23T09:52:50.325Z,65.65
2018-11-23T10:02:50.420Z,61.58
2018-11-23T10:12:50.533Z,62.22
2018-11-23T10:22:51.251Z,58.14
2018-11-23T10:32:50.364Z,52.58
2018-11-23T10:42:50.362Z,50.62
2018-11-23T10:52:50.520Z,50.34
2018-11-23T11:02:51.233Z,52.12
2018-11-23T11:12:51.204Z,53.91
2018-11-23T11:22:50.377Z,52.96
2018-11-23T11:32:50.418Z,52.91
2018-11-23T11:42:51.165Z,52.68
2018-11-23T11:52:50.468Z,52.18
2018-11-23T12:02:50.380Z,50.78
2018-11-23T12:12:50.580Z,49.49
2018-11-23T12:22:50.375Z,50.89
2018-11-23T12:32:51.437Z,50.47
2018-11-23T12:42:50.644Z,50.78
2018-11-23T12:52:50.430Z,53.04
2018-11-23T13:02:50.448Z,53.94
2018-11-23T13:12:50.902Z,53.32
2018-11-23T13:22:50.461Z,51.39
2018-11-23T13:32:50.388Z,49.38
2018-11-23T13:42:51.449Z,52.45
2018-11-23T13:52:50.443Z,56.32
2018-11-23T14:02:50.499Z,55.89
2018-11-23T14:12:51.095Z,54.99
2018-11-23T14:22:51.095Z,55.29
2018-11-23T14:32:50.430Z,56.19
2018-11-23T14:42:50.539Z,57.38
2018-11-23T14:52:50.485Z,58.46
2018-11-23T15:02:50.456Z,62.18
2018-11-23T15:12:50.441Z,68.49
2018-11-23T15:22:50.392Z,71.19
2018-11-23T15:32:51.116Z,73.64
2018-11-23T15:42:57.699Z,74.98
2018-11-23T15:52:50.500Z,76.26
2018-11-23T16:02:50.437Z,78.46
2018-11-23T16:12:50.499Z,80.95
2018-11-23T16:22:50.484Z,81.67
2018-11-23T16:32:50.424Z,81.99
2018-11-23T16:42:50.491Z,83.89
2018-11-23T16:52:50.457Z,84.60
2018-11-23T17:02:50.375Z,84.05
2018-11-23T17:12:50.470Z,83.35
2018-11-23T17:22:50.458Z,84.41
2018-11-23T17:32:50.443Z,85.24
2018-11-23T17:42:50.352Z,84.80
2018-11-23T17:52:50.413Z,86.16
2018-11-23T18:02:50.435Z,87.45
2018-11-23T18:12:50.439Z,87.85
2018-11-23T18:22:50.420Z,88.27
2018-11-23T18:32:50.392Z,89.20
2018-11-23T18:42:50.674Z,90.01
2018-11-23T18:52:50.438Z,90.23
2018-11-23T19:02:51.168Z,90.44
2018-11-23T19:12:50.336Z,90.69
2018-11-23T19:22:50.943Z,91.08
2018-11-23T19:32:51.097Z,91.18
2018-11-23T19:42:50.381Z,91.50
2018-11-23T19:52:50.430Z,91.86
2018-11-23T20:02:50.516Z,92.60
2018-11-23T20:12:50.431Z,93.30
2018-11-23T20:22:50.457Z,93.65
2018-11-23T20:32:50.555Z,94.15
2018-11-23T20:42:50.461Z,94.85
2018-11-23T20:52:50.471Z,94.59
2018-11-23T21:02:50.452Z,94.53
2018-11-23T21:12:50.299Z,94.46
2018-11-23T21:22:50.414Z,94.82
2018-11-23T21:32:50.418Z,94.75
2018-11-23T21:42:50.475Z,95.27
2018-11-23T21:52:50.539Z,94.78
2018-11-23T22:02:50.369Z,94.98
2018-11-23T22:12:51.321Z,95.19
2018-11-23T22:22:50.432Z,94.54
2018-11-23T22:32:50.348Z,94.83
2018-11-23T22:42:50.404Z,94.08
2018-11-23T22:52:50.284Z,94.64
2018-11-23T23:02:50.694Z,94.50
2018-11-23T23:12:50.355Z,94.62
2018-11-23T23:22:50.371Z,94.97
2018-11-23T23:32:50.418Z,95.21
2018-11-23T23:42:50.370Z,94.96
2018-11-23T23:52:50.303Z,95.39
